createdAt,value
2022-09-10T00:01:29.346Z,8.00
2022-09-10T00:04:26.943Z,8.40
2022-09-10T00:07:24.287Z,6.40
2022-09-10T00:10:21.354Z,10.00
2022-09-10T00:13:21.751Z,9.80
2022-09-10T00:16:19.389Z,9.80
2022-09-10T00:19:16.818Z,10.40
2022-09-10T00:22:14.567Z,10.40
2022-09-10T00:25:12.283Z,11.00
2022-09-10T00:28:09.496Z,11.80
2022-09-10T00:31:06.396Z,11.60
2022-09-10T00:34:03.551Z,11.00
2022-09-10T00:37:00.529Z,13.00
2022-09-10T00:39:57.603Z,13.00
2022-09-10T00:42:54.957Z,12.20
2022-09-10T00:45:54.716Z,12.80
2022-09-10T00:48:54.269Z,13.20
2022-09-10T00:51:52.950Z,12.00
2022-09-10T00:54:50.554Z,13.60
2022-09-10T00:57:47.813Z,12.60
2022-09-10T01:00:45.890Z,12.60
2022-09-10T01:03:43.884Z,13.00
2022-09-10T01:06:42.169Z,12.20
2022-09-10T01:09:39.763Z,12.00
2022-09-10T01:13:22.845Z,11.60
2022-09-10T01:16:33.264Z,12.80
2022-09-10T01:19:51.899Z,15.00
2022-09-10T01:23:00.574Z,13.40
2022-09-10T01:26:21.706Z,12.40
2022-09-10T01:29:32.610Z,14.80
2022-09-10T01:32:53.782Z,15.40
2022-09-10T01:36:05.652Z,12.20
2022-09-10T01:39:02.689Z,13.00
2022-09-10T01:41:59.365Z,14.00
2022-09-10T01:45:01.167Z,14.40
2022-09-10T01:48:20.012Z,13.20
2022-09-10T01:51:41.370Z,16.00
2022-09-10T01:55:03.346Z,15.40
2022-09-10T01:58:13.347Z,17.00
2022-09-10T02:01:29.419Z,16.60
2022-09-10T02:04:26.580Z,16.80
2022-09-10T02:07:24.236Z,16.60
2022-09-10T02:10:22.796Z,14.40
2022-09-10T02:13:22.330Z,16.40
2022-09-10T02:16:39.830Z,10.40
2022-09-10T02:19:37.490Z,16.20
2022-09-10T02:22:36.486Z,16.00
2022-09-10T02:25:35.254Z,15.00
2022-09-10T02:28:33.941Z,11.20
2022-09-10T02:31:31.897Z,14.60
2022-09-10T02:34:30.736Z,10.00
2022-09-10T02:37:28.493Z,14.60
2022-09-10T02:40:25.671Z,14.40
2022-09-10T02:43:22.631Z,13.00
2022-09-10T02:46:19.692Z,14.40
2022-09-10T02:49:18.115Z,12.20
2022-09-10T02:52:15.620Z,13.40
2022-09-10T02:55:13.261Z,13.20
2022-09-10T02:58:13.572Z,14.20
2022-09-10T03:01:14.537Z,13.20
2022-09-10T03:04:12.255Z,16.00
2022-09-10T03:07:09.746Z,15.80
2022-09-10T03:10:07.818Z,16.60
2022-09-10T03:13:05.554Z,16.80
2022-09-10T03:16:04.308Z,15.40
2022-09-10T03:19:03.507Z,17.80
2022-09-10T03:22:01.449Z,17.00
2022-09-10T03:24:59.293Z,15.00
2022-09-10T03:27:56.530Z,18.00
2022-09-10T03:30:54.596Z,18.00
2022-09-10T03:33:51.569Z,16.60
2022-09-10T03:36:49.413Z,17.60
2022-09-10T03:39:47.519Z,17.00
2022-09-10T03:42:46.509Z,14.80
2022-09-10T03:45:43.732Z,15.00
2022-09-10T03:48:43.367Z,16.00
2022-09-10T03:51:40.429Z,19.40
2022-09-10T03:54:37.560Z,14.60
2022-09-10T03:57:34.629Z,17.80
2022-09-10T04:00:31.535Z,16.80
2022-09-10T04:03:30.714Z,17.00
2022-09-10T04:06:27.987Z,17.00
2022-09-10T04:09:25.537Z,16.80
2022-09-10T04:12:22.622Z,17.80
2022-09-10T04:15:20.942Z,17.80
2022-09-10T04:18:18.454Z,17.00
2022-09-10T04:21:16.468Z,17.00
2022-09-10T04:24:16.734Z,16.20
2022-09-10T04:27:13.865Z,16.40
2022-09-10T04:30:12.172Z,16.00
2022-09-10T04:33:09.635Z,14.00
2022-09-10T04:36:06.980Z,18.20
2022-09-10T04:39:08.875Z,16.80
2022-09-10T04:42:09.853Z,18.60
2022-09-10T04:45:08.021Z,16.20
2022-09-10T04:48:07.265Z,12.80
2022-09-10T04:51:16.107Z,16.40
2022-09-10T04:54:15.674Z,16.60
2022-09-10T04:57:18.708Z,17.60
2022-09-10T05:00:16.937Z,16.20
2022-09-10T05:03:14.883Z,19.00
2022-09-10T05:06:14.849Z,16.60
2022-09-10T05:09:12.187Z,16.80
2022-09-10T05:12:10.653Z,18.00
2022-09-10T05:15:08.467Z,16.60
2022-09-10T05:18:05.397Z,17.00
2022-09-10T05:21:06.192Z,17.80
2022-09-10T05:24:05.936Z,16.00
2022-09-10T05:27:03.774Z,17.40
2022-09-10T05:30:02.151Z,17.00
2022-09-10T05:33:00.864Z,19.60
2022-09-10T05:35:59.484Z,17.20
2022-09-10T05:38:58.291Z,17.00
2022-09-10T05:41:57.320Z,17.80
2022-09-10T05:44:54.637Z,17.20
2022-09-10T05:47:53.025Z,16.20
2022-09-10T05:50:53.587Z,17.20
2022-09-10T05:53:50.914Z,17.20
2022-09-10T05:56:48.994Z,13.80
2022-09-10T05:59:46.915Z,17.80
2022-09-10T06:02:45.351Z,14.40
2022-09-10T06:05:55.765Z,17.80
2022-09-10T06:08:58.834Z,17.00
2022-09-10T06:12:13.676Z,15.20
2022-09-10T06:15:11.641Z,16.00
2022-09-10T06:18:09.389Z,16.00
2022-09-10T06:21:17.723Z,14.00
2022-09-10T06:24:18.412Z,15.60
2022-09-10T06:27:17.082Z,16.00
2022-09-10T06:30:14.503Z,17.80
2022-09-10T06:33:16.932Z,16.60
2022-09-10T06:36:14.748Z,12.60
2022-09-10T06:39:11.737Z,13.80
2022-09-10T06:42:20.837Z,15.40
2022-09-10T06:45:28.284Z,14.40
2022-09-10T06:48:53.755Z,16.80
2022-09-10T06:51:51.197Z,14.40
2022-09-10T06:54:48.786Z,10.40
2022-09-10T06:57:59.810Z,17.60
2022-09-10T07:00:58.593Z,16.00
2022-09-10T07:03:57.063Z,14.80
2022-09-10T07:06:55.168Z,16.80
2022-09-10T07:09:52.518Z,15.20
2022-09-10T07:12:50.220Z,18.80
2022-09-10T07:15:49.759Z,16.20
2022-09-10T07:18:49.416Z,17.40
2022-09-10T07:21:47.772Z,16.00
2022-09-10T07:24:49.314Z,14.40
2022-09-10T07:27:57.656Z,15.20
2022-09-10T07:30:56.530Z,16.20
2022-09-10T07:33:55.497Z,16.80
2022-09-10T07:36:56.761Z,16.80
2022-09-10T07:39:54.845Z,17.20
2022-09-10T07:42:52.487Z,18.00
2022-09-10T07:45:49.862Z,16.80
2022-09-10T07:48:48.743Z,16.40
2022-09-10T07:51:47.043Z,16.20
2022-09-10T07:54:44.922Z,15.20
2022-09-10T07:57:41.881Z,17.60
2022-09-10T08:00:40.740Z,14.80
2022-09-10T08:03:41.087Z,14.00
2022-09-10T08:06:40.850Z,12.00
2022-09-10T08:09:39.119Z,10.80
2022-09-10T08:12:39.886Z,14.40
2022-09-10T08:15:41.670Z,13.00
2022-09-10T08:18:39.112Z,10.60
2022-09-10T08:21:37.142Z,14.00
2022-09-10T08:24:35.746Z,14.00
2022-09-10T08:27:33.824Z,11.00
2022-09-10T08:30:32.863Z,16.00
2022-09-10T08:33:31.712Z,14.00
2022-09-10T08:36:28.830Z,17.00
2022-09-10T08:39:25.729Z,15.20
2022-09-10T08:42:27.915Z,15.80
2022-09-10T08:45:29.323Z,18.00
2022-09-10T08:48:27.574Z,14.80
2022-09-10T08:51:27.540Z,18.00
2022-09-10T08:54:28.118Z,16.40
2022-09-10T08:57:32.812Z,15.80
2022-09-10T09:00:34.249Z,17.80
2022-09-10T09:03:40.684Z,13.40
2022-09-10T09:06:44.601Z,17.80
2022-09-10T09:09:42.796Z,15.00
2022-09-10T09:12:46.542Z,14.20
2022-09-10T09:15:51.872Z,17.20
2022-09-10T09:18:55.097Z,17.80
2022-09-10T09:21:56.491Z,17.20
2022-09-10T09:25:03.255Z,15.20
2022-09-10T09:28:01.112Z,14.40
2022-09-10T09:31:10.644Z,14.40
2022-09-10T09:34:25.975Z,15.00
2022-09-10T09:37:29.469Z,20.80
2022-09-10T09:40:33.722Z,19.40
2022-09-10T09:43:49.535Z,16.00
2022-09-10T09:46:49.401Z,17.00
2022-09-10T09:49:47.191Z,15.00
2022-09-10T09:52:43.917Z,16.20
2022-09-10T09:55:48.859Z,19.80
2022-09-10T09:58:49.916Z,17.80
2022-09-10T10:01:47.036Z,17.80
2022-09-10T10:05:23.341Z,18.00
2022-09-10T10:08:43.533Z,17.80
2022-09-10T10:11:52.234Z,14.00
2022-09-10T10:14:51.398Z,15.40
2022-09-10T10:17:49.658Z,20.20
2022-09-10T10:20:47.001Z,17.80
2022-09-10T10:23:44.447Z,16.40
2022-09-10T10:26:44.146Z,18.60
2022-09-10T10:29:40.740Z,17.40
2022-09-10T10:32:51.164Z,17.20
2022-09-10T10:36:15.377Z,18.60
2022-09-10T10:39:21.934Z,19.60
2022-09-10T10:42:29.572Z,17.00
2022-09-10T10:45:40.466Z,19.00
2022-09-10T10:49:23.149Z,18.00
2022-09-10T10:52:25.950Z,17.80
2022-09-10T10:55:25.219Z,17.40
2022-09-10T10:58:34.114Z,24.40
2022-09-10T11:01:35.049Z,20.60
2022-09-10T11:04:40.147Z,28.00
2022-09-10T11:07:42.129Z,28.40
2022-09-10T11:10:42.023Z,20.20
2022-09-10T11:14:03.345Z,17.60
2022-09-10T11:17:04.449Z,24.00
2022-09-10T11:20:29.666Z,21.80
2022-09-10T11:23:48.953Z,21.00
2022-09-10T11:26:49.705Z,19.00
2022-09-10T11:30:04.209Z,15.20
2022-09-10T11:33:19.314Z,15.80
2022-09-10T11:36:22.330Z,17.80
2022-09-10T11:39:24.343Z,17.60
2022-09-10T11:42:30.670Z,16.20
2022-09-10T11:45:39.693Z,14.20
2022-09-10T11:48:40.423Z,10.80
2022-09-10T11:51:37.876Z,10.40
2022-09-10T11:54:35.148Z,10.00
2022-09-10T11:57:53.719Z,10.00
2022-09-10T12:01:08.934Z,9.40
2022-09-10T12:04:24.858Z,14.00
2022-09-10T12:07:21.759Z,11.80
2022-09-10T12:10:43.787Z,10.00
2022-09-10T12:13:41.740Z,11.40
2022-09-10T12:17:01.042Z,13.80
2022-09-10T12:19:58.764Z,14.40
2022-09-10T12:22:55.994Z,11.60
2022-09-10T12:26:10.406Z,11.00
2022-09-10T12:29:33.222Z,11.80
2022-09-10T12:32:30.348Z,13.00
2022-09-10T12:35:30.453Z,10.00
2022-09-10T12:39:18.492Z,11.40
2022-09-10T12:42:29.089Z,10.20
2022-09-10T12:46:07.449Z,11.80
2022-09-10T12:49:06.784Z,12.40
2022-09-10T12:52:04.069Z,13.60
2022-09-10T12:55:22.888Z,11.00
2022-09-10T12:58:24.237Z,13.80
2022-09-10T13:01:29.785Z,11.60
2022-09-10T13:04:30.724Z,16.00
2022-09-10T13:07:34.324Z,11.60
2022-09-10T13:10:31.254Z,12.00
2022-09-10T13:13:51.035Z,13.00
2022-09-10T13:16:48.569Z,15.00
2022-09-10T13:19:45.751Z,13.00
2022-09-10T13:23:09.211Z,12.40
2022-09-10T13:26:39.980Z,12.40
2022-09-10T13:29:41.910Z,11.80
2022-09-10T13:32:41.919Z,12.00
2022-09-10T13:35:57.584Z,15.00
2022-09-10T13:39:08.364Z,11.40
2022-09-10T13:42:31.276Z,12.40
2022-09-10T13:45:41.778Z,17.80
2022-09-10T13:48:51.681Z,11.00
2022-09-10T13:51:59.234Z,13.00
2022-09-10T13:54:56.856Z,13.00
2022-09-10T13:58:17.466Z,12.00
2022-09-10T14:01:15.070Z,11.00
2022-09-10T14:04:43.023Z,12.40
2022-09-10T14:07:42.334Z,11.40
2022-09-10T14:11:44.131Z,10.40
2022-09-10T14:14:43.533Z,11.80
2022-09-10T14:17:43.146Z,12.60
2022-09-10T14:20:40.153Z,11.60
2022-09-10T14:23:40.340Z,10.40
2022-09-10T14:26:37.090Z,11.20
2022-09-10T14:29:34.199Z,10.60
2022-09-10T14:32:32.450Z,12.00
2022-09-10T14:35:39.513Z,11.40
2022-09-10T14:38:38.165Z,11.40
2022-09-10T14:41:34.905Z,10.40
2022-09-10T14:44:32.195Z,9.40
2022-09-10T14:47:35.874Z,10.00
2022-09-10T14:50:34.747Z,9.20
2022-09-10T14:53:32.179Z,15.80
2022-09-10T14:56:43.918Z,29.20
2022-09-10T14:59:42.565Z,10.00
2022-09-10T15:02:40.771Z,12.40
2022-09-10T15:05:39.534Z,12.20
2022-09-10T15:08:37.252Z,13.80
2022-09-10T15:11:34.881Z,13.80
2022-09-10T15:14:32.689Z,11.00
2022-09-10T15:17:30.247Z,15.40
2022-09-10T15:20:28.116Z,13.00
2022-09-10T15:23:25.247Z,9.20
2022-09-10T15:26:22.011Z,9.00
2022-09-10T15:29:19.171Z,16.60
2022-09-10T15:32:18.284Z,16.00
2022-09-10T15:35:15.115Z,12.20
2022-09-10T15:38:16.128Z,14.00
2022-09-10T15:41:13.976Z,15.00
2022-09-10T15:44:11.672Z,19.20
2022-09-10T15:47:10.112Z,21.20
2022-09-10T15:50:09.369Z,13.00
2022-09-10T15:53:10.425Z,13.40
2022-09-10T15:56:10.051Z,15.60
2022-09-10T15:59:08.668Z,12.00
2022-09-10T16:02:06.561Z,15.00
2022-09-10T16:05:05.316Z,11.00
2022-09-10T16:08:02.397Z,19.20
2022-09-10T16:10:59.509Z,13.40
2022-09-10T16:13:58.939Z,12.40
2022-09-10T16:16:58.808Z,14.40
2022-09-10T16:19:56.427Z,15.40
2022-09-10T16:22:53.790Z,13.60
2022-09-10T16:25:54.970Z,12.80
2022-09-10T16:28:53.892Z,13.40
2022-09-10T16:31:51.297Z,14.00
2022-09-10T16:34:48.301Z,14.20
2022-09-10T16:37:45.319Z,15.40
2022-09-10T16:40:42.560Z,13.40
2022-09-10T16:43:39.871Z,14.00
2022-09-10T16:46:38.378Z,14.00
2022-09-10T16:49:35.182Z,12.00
2022-09-10T16:52:34.169Z,15.20
2022-09-10T16:55:31.358Z,14.40
2022-09-10T16:58:31.882Z,12.20
2022-09-10T17:01:32.500Z,12.20
2022-09-10T17:04:29.606Z,13.80
2022-09-10T17:07:27.502Z,12.80
2022-09-10T17:10:27.041Z,12.00
2022-09-10T17:13:24.378Z,14.20
2022-09-10T17:16:21.279Z,14.60
2022-09-10T17:19:26.594Z,13.60
2022-09-10T17:22:24.416Z,17.60
2022-09-10T17:25:21.478Z,17.00
2022-09-10T17:28:18.205Z,15.60
2022-09-10T17:31:15.505Z,18.60
2022-09-10T17:34:13.204Z,17.80
2022-09-10T17:37:10.180Z,16.60
2022-09-10T17:40:08.032Z,19.00
2022-09-10T17:43:05.248Z,17.80
2022-09-10T17:46:06.243Z,16.80
2022-09-10T17:49:03.208Z,17.00
2022-09-10T17:52:00.456Z,14.20
2022-09-10T17:54:57.863Z,17.80
2022-09-10T17:57:55.305Z,17.00
2022-09-10T18:00:57.869Z,20.00
2022-09-10T18:03:55.295Z,19.80
2022-09-10T18:06:52.795Z,16.80
2022-09-10T18:09:50.300Z,20.00
2022-09-10T18:12:47.224Z,22.60
2022-09-10T18:15:46.440Z,20.80
2022-09-10T18:18:47.176Z,20.60
2022-09-10T18:21:45.639Z,20.20
2022-09-10T18:24:43.274Z,20.00
2022-09-10T18:27:41.660Z,21.00
2022-09-10T18:30:39.261Z,21.00
2022-09-10T18:33:38.440Z,20.80
2022-09-10T18:36:35.711Z,20.80
2022-09-10T18:39:33.708Z,18.00
2022-09-10T18:42:31.368Z,21.00
2022-09-10T18:45:28.282Z,19.00
2022-09-10T18:48:25.219Z,17.80
2022-09-10T18:51:23.108Z,19.00
2022-09-10T18:54:20.635Z,17.20
2022-09-10T18:57:17.626Z,17.80
2022-09-10T19:00:14.655Z,19.60
2022-09-10T19:03:11.462Z,15.00
2022-09-10T19:06:13.432Z,18.20
2022-09-10T19:09:12.180Z,16.80
2022-09-10T19:12:09.318Z,16.60
2022-09-10T19:15:07.305Z,15.00
2022-09-10T19:18:06.479Z,16.40
2022-09-10T19:21:05.507Z,15.60
2022-09-10T19:24:03.266Z,17.60
2022-09-10T19:27:00.540Z,17.80
2022-09-10T19:29:57.365Z,15.40
2022-09-10T19:32:54.753Z,16.40
2022-09-10T19:35:56.487Z,17.60
2022-09-10T19:38:55.278Z,17.00
2022-09-10T19:41:52.510Z,17.00
2022-09-10T19:44:49.525Z,16.00
2022-09-10T19:47:46.196Z,19.00
2022-09-10T19:50:43.492Z,16.80
2022-09-10T19:53:41.147Z,17.80
2022-09-10T19:56:41.235Z,16.40
2022-09-10T19:59:39.027Z,18.00
2022-09-10T20:02:36.447Z,17.60
2022-09-10T20:05:36.505Z,16.00
2022-09-10T20:08:36.540Z,17.00
2022-09-10T20:11:35.154Z,14.60
2022-09-10T20:14:32.858Z,14.00
2022-09-10T20:17:30.620Z,16.00
2022-09-10T20:20:29.108Z,15.60
2022-09-10T20:23:26.554Z,18.00
2022-09-10T20:26:24.440Z,18.20
2022-09-10T20:29:23.160Z,19.80
2022-09-10T20:32:20.453Z,19.60
2022-09-10T20:35:17.394Z,18.00
2022-09-10T20:38:14.633Z,19.00
2022-09-10T20:41:15.957Z,17.40
2022-09-10T20:44:15.729Z,18.00
2022-09-10T20:47:13.194Z,17.20
2022-09-10T20:50:11.746Z,17.00
2022-09-10T20:53:08.327Z,15.20
2022-09-10T20:56:07.058Z,19.00
2022-09-10T20:59:04.667Z,16.60
2022-09-10T21:02:01.551Z,18.00
2022-09-10T21:04:58.496Z,18.80
2022-09-10T21:07:56.060Z,16.40
2022-09-10T21:10:53.610Z,16.20
2022-09-10T21:13:54.034Z,17.20
2022-09-10T21:16:51.568Z,17.00
2022-09-10T21:19:48.048Z,15.00
2022-09-10T21:22:45.473Z,19.00
2022-09-10T21:25:51.379Z,17.40
2022-09-10T21:28:48.476Z,17.80
2022-09-10T21:31:45.666Z,16.80
2022-09-10T21:34:42.900Z,20.40
2022-09-10T21:37:40.621Z,18.20
2022-09-10T21:40:38.810Z,17.60
2022-09-10T21:43:36.636Z,20.60
2022-09-10T21:46:34.556Z,16.60
2022-09-10T21:49:31.667Z,17.60
2022-09-10T21:52:28.807Z,18.40
2022-09-10T21:55:28.123Z,19.60
2022-09-10T21:58:29.364Z,14.00
2022-09-10T22:01:28.260Z,17.20
2022-09-10T22:04:25.453Z,19.60
2022-09-10T22:07:22.792Z,16.00
2022-09-10T22:10:20.039Z,16.60
2022-09-10T22:13:17.852Z,17.00
2022-09-10T22:16:15.947Z,16.20
2022-09-10T22:19:15.275Z,18.60
2022-09-10T22:22:12.596Z,19.20
2022-09-10T22:25:09.792Z,16.40
2022-09-10T22:28:06.722Z,19.80
2022-09-10T22:31:15.387Z,16.00
2022-09-10T22:34:14.099Z,17.40
2022-09-10T22:37:11.691Z,15.40
2022-09-10T22:40:09.520Z,17.60
2022-09-10T22:43:06.526Z,18.20
2022-09-10T22:46:06.836Z,20.40
2022-09-10T22:49:05.192Z,15.40
2022-09-10T22:52:02.878Z,19.00
2022-09-10T22:54:59.940Z,17.20
2022-09-10T22:57:57.794Z,16.60
2022-09-10T23:00:54.647Z,18.40
2022-09-10T23:03:52.896Z,18.00
2022-09-10T23:06:50.382Z,20.00
2022-09-10T23:09:48.215Z,16.40
2022-09-10T23:12:45.568Z,17.00
2022-09-10T23:15:43.074Z,18.20
2022-09-10T23:18:41.380Z,18.00
2022-09-10T23:21:40.919Z,16.60
2022-09-10T23:24:37.361Z,16.00
2022-09-10T23:27:35.304Z,15.40
2022-09-10T23:30:33.501Z,16.60
2022-09-10T23:33:30.918Z,16.80
2022-09-10T23:36:33.025Z,20.60
2022-09-10T23:39:30.370Z,19.80
2022-09-10T23:42:27.917Z,17.00
2022-09-10T23:45:25.014Z,16.80
2022-09-10T23:48:24.001Z,19.60
2022-09-10T23:51:22.838Z,19.40
2022-09-10T23:54:19.394Z,17.20
2022-09-10T23:57:17.486Z,17.40
